Time;durP1;ratioP1;P1;durP2;ratioP2;P2;SDS_P1;SDS_P2;PMS_P1;PMS_P2;Temp;Humidity;BMP_temperature;BMP_pressure;BME280_temperature;BME280_humidity;BME280_pressure;Samples;Min_cycle;Max_cycle;Signal;HPM_P1;HPM_P2
2022/02/23 00:01:41;;;;;;;1.70;0.75;;;;;;;;;;4971088;28;20050;-79
2022/02/23 00:04:08;;;;;;;1.77;0.50;;;;;;;;;;5001810;28;20074;-79
2022/02/23 00:06:35;;;;;;;0.30;0.30;;;;;;;;;;4966911;28;20043;-79
2022/02/23 00:09:02;;;;;;;1.48;0.60;;;;;;;;;;4968451;28;20110;-79
2022/02/23 00:11:29;;;;;;;1.25;0.40;;;;;;;;;;4994765;28;20054;-80
2022/02/23 00:13:56;;;;;;;1.83;0.77;;;;;;;;;;4986856;28;20042;-78
2022/02/23 00:16:23;;;;;;;3.80;0.60;;;;;;;;;;4982481;28;20073;-79
2022/02/23 00:18:50;;;;;;;1.15;0.88;;;;;;;;;;5014559;28;20055;-79
2022/02/23 00:21:16;;;;;;;0.90;0.40;;;;;;;;;;4976012;28;20054;-79
2022/02/23 00:23:44;;;;;;;1.42;0.40;;;;;;;;;;4982976;28;20055;-79
2022/02/23 00:26:13;;;;;;;0.77;0.40;;;;;;;;;;4952106;28;20147;-79
2022/02/23 00:28:40;;;;;;;2.30;0.60;;;;;;;;;;4967154;28;20051;-79
2022/02/23 00:31:07;;;;;;;0.98;0.45;;;;;;;;;;4973449;28;20056;-79
2022/02/23 00:33:34;;;;;;;1.05;0.50;;;;;;;;;;4993051;28;20053;-79
2022/02/23 00:36:00;;;;;;;2.40;0.82;;;;;;;;;;4982445;28;20491;-79
2022/02/23 00:38:27;;;;;;;1.70;0.60;;;;;;;;;;4969109;28;20066;-79
2022/02/23 00:40:54;;;;;;;1.80;0.68;;;;;;;;;;4975178;28;20053;-80
2022/02/23 00:43:21;;;;;;;1.17;0.57;;;;;;;;;;4974981;28;20050;-80
2022/02/23 00:45:48;;;;;;;2.90;0.57;;;;;;;;;;4991228;28;20133;-79
2022/02/23 00:48:15;;;;;;;1.17;0.50;;;;;;;;;;4990100;28;20057;-79
2022/02/23 00:50:42;;;;;;;2.72;0.73;;;;;;;;;;5004057;28;20053;-80
2022/02/23 00:53:09;;;;;;;1.23;0.40;;;;;;;;;;4971877;28;20061;-78
2022/02/23 00:55:35;;;;;;;1.17;0.60;;;;;;;;;;4986041;28;20057;-80
2022/02/23 00:58:02;;;;;;;0.77;0.50;;;;;;;;;;4969289;28;20046;-80
2022/02/23 01:00:29;;;;;;;1.33;0.40;;;;;;;;;;4952376;28;20058;-80
2022/02/23 01:02:56;;;;;;;1.90;0.93;;;;;;;;;;4970664;28;20545;-80
2022/02/23 01:05:22;;;;;;;2.80;1.30;;;;;;;;;;4988477;28;20054;-80
2022/02/23 01:07:49;;;;;;;0.82;0.50;;;;;;;;;;4968038;28;20047;-80
2022/02/23 01:10:16;;;;;;;1.92;0.50;;;;;;;;;;4952368;28;20077;-80
2022/02/23 01:12:43;;;;;;;2.35;0.70;;;;;;;;;;4968468;28;20063;-80
2022/02/23 01:15:09;;;;;;;1.98;0.70;;;;;;;;;;4983865;28;20055;-79
2022/02/23 01:17:38;;;;;;;2.30;0.70;;;;;;;;;;4952933;28;20059;-80
2022/02/23 01:20:05;;;;;;;1.50;0.70;;;;;;;;;;4985935;28;20047;-79
2022/02/23 01:22:32;;;;;;;0.95;0.47;;;;;;;;;;4952949;28;20075;-79
2022/02/23 01:24:59;;;;;;;1.35;0.40;;;;;;;;;;4970220;28;20058;-80
2022/02/23 01:27:26;;;;;;;2.88;0.60;;;;;;;;;;4954341;28;20062;-80
2022/02/23 01:29:53;;;;;;;0.75;0.40;;;;;;;;;;4989481;28;20058;-81
2022/02/23 01:32:19;;;;;;;2.00;0.68;;;;;;;;;;5004209;28;20054;-80
2022/02/23 01:34:46;;;;;;;1.17;0.50;;;;;;;;;;4988237;28;20054;-81
2022/02/23 01:37:13;;;;;;;1.85;0.65;;;;;;;;;;4989124;28;20066;-81
2022/02/23 01:39:40;;;;;;;1.52;0.40;;;;;;;;;;4957982;28;20051;-81
2022/02/23 01:42:07;;;;;;;3.03;0.60;;;;;;;;;;4955538;28;20047;-82
2022/02/23 01:44:34;;;;;;;3.03;0.47;;;;;;;;;;4953855;28;20295;-82
2022/02/23 01:47:01;;;;;;;2.95;0.57;;;;;;;;;;4985861;28;20062;-82
2022/02/23 01:49:28;;;;;;;3.95;0.50;;;;;;;;;;4952969;28;20054;-82
2022/02/23 01:51:55;;;;;;;6.05;1.10;;;;;;;;;;4969322;28;20519;-82
2022/02/23 01:54:21;;;;;;;2.42;1.00;;;;;;;;;;4956287;28;20408;-82
2022/02/23 01:56:48;;;;;;;3.55;0.77;;;;;;;;;;4964413;28;20043;-82
2022/02/23 01:59:15;;;;;;;7.00;1.67;;;;;;;;;;4977942;28;20061;-81
2022/02/23 02:01:42;;;;;;;7.38;0.95;;;;;;;;;;4976000;28;20062;-81
2022/02/23 02:04:09;;;;;;;5.57;0.70;;;;;;;;;;4964895;28;20079;-81
2022/02/23 02:06:36;;;;;;;2.38;0.73;;;;;;;;;;4981343;28;20062;-80
2022/02/23 02:09:02;;;;;;;3.78;0.80;;;;;;;;;;4977798;28;20050;-80
2022/02/23 02:11:29;;;;;;;6.13;0.90;;;;;;;;;;4971091;28;20407;-80
2022/02/23 02:13:56;;;;;;;6.38;1.02;;;;;;;;;;4972602;28;20062;-80
2022/02/23 02:16:23;;;;;;;8.30;1.33;;;;;;;;;;4976844;28;20103;-80
2022/02/23 02:18:53;;;;;;;1.85;0.65;;;;;;;;;;4984543;28;20039;-81
2022/02/23 02:21:19;;;;;;;5.20;1.10;;;;;;;;;;5000529;28;20034;-80
2022/02/23 02:23:46;;;;;;;4.70;1.13;;;;;;;;;;4984646;28;20045;-79
2022/02/23 02:26:15;;;;;;;6.90;0.98;;;;;;;;;;4984740;28;20050;-81
2022/02/23 02:28:41;;;;;;;5.88;1.30;;;;;;;;;;5000501;28;20065;-80
2022/02/23 02:31:08;;;;;;;5.68;0.85;;;;;;;;;;4984231;28;20035;-80
2022/02/23 02:33:35;;;;;;;6.95;1.20;;;;;;;;;;4978184;28;20034;-80
2022/02/23 02:36:02;;;;;;;5.72;0.85;;;;;;;;;;5015725;28;20038;-79
2022/02/23 02:38:28;;;;;;;7.38;0.93;;;;;;;;;;4966748;28;20057;-80
2022/02/23 02:40:55;;;;;;;7.70;1.05;;;;;;;;;;4967407;28;20034;-80
2022/02/23 02:43:22;;;;;;;9.63;1.25;;;;;;;;;;4991569;28;20089;-80
2022/02/23 02:45:48;;;;;;;9.48;1.40;;;;;;;;;;5002766;28;20034;-79
2022/02/23 02:48:16;;;;;;;5.05;1.30;;;;;;;;;;5017747;28;20050;-80
2022/02/23 02:50:43;;;;;;;10.80;1.30;;;;;;;;;;5013340;28;20042;-80
2022/02/23 02:53:10;;;;;;;3.13;1.00;;;;;;;;;;5002264;28;20114;-80
2022/02/23 02:55:37;;;;;;;8.60;1.05;;;;;;;;;;4973816;28;20039;-81
2022/02/23 02:58:03;;;;;;;3.65;1.35;;;;;;;;;;4984031;28;20058;-80
2022/02/23 03:00:30;;;;;;;8.35;0.93;;;;;;;;;;4985344;28;20042;-79
2022/02/23 03:02:57;;;;;;;10.00;1.50;;;;;;;;;;5001249;28;20038;-79
2022/02/23 03:05:25;;;;;;;7.40;1.48;;;;;;;;;;4975252;28;20041;-79
2022/02/23 03:07:52;;;;;;;6.70;1.35;;;;;;;;;;4966769;28;20031;-81
2022/02/23 03:10:19;;;;;;;6.25;0.95;;;;;;;;;;4974737;28;20054;-80
2022/02/23 03:12:45;;;;;;;5.60;1.10;;;;;;;;;;4983460;28;20042;-80
2022/02/23 03:15:12;;;;;;;11.07;1.42;;;;;;;;;;4970440;28;20051;-80
2022/02/23 03:17:39;;;;;;;9.68;1.23;;;;;;;;;;4946906;28;20059;-80
2022/02/23 03:20:07;;;;;;;4.57;1.02;;;;;;;;;;4960436;28;20047;-81
2022/02/23 03:22:35;;;;;;;7.32;1.15;;;;;;;;;;4958704;28;20066;-81
2022/02/23 03:25:06;;;;;;;9.48;1.38;;;;;;;;;;4966071;28;20050;-82
2022/02/23 03:27:32;;;;;;;13.13;1.23;;;;;;;;;;5007348;28;20062;-83
2022/02/23 03:29:59;;;;;;;11.73;1.23;;;;;;;;;;4972353;28;20430;-83
2022/02/23 03:32:26;;;;;;;11.88;1.30;;;;;;;;;;4975574;28;20058;-82
2022/02/23 03:34:53;;;;;;;11.75;1.25;;;;;;;;;;5001603;28;20058;-82
2022/02/23 03:37:19;;;;;;;11.75;1.60;;;;;;;;;;4985480;28;20071;-83
2022/02/23 03:39:46;;;;;;;5.93;1.67;;;;;;;;;;5002469;28;20041;-83
2022/02/23 03:42:13;;;;;;;11.60;1.88;;;;;;;;;;5000242;28;20048;-83
2022/02/23 03:44:39;;;;;;;11.60;2.45;;;;;;;;;;4963315;28;20043;-83
2022/02/23 03:47:06;;;;;;;9.15;1.58;;;;;;;;;;4941428;28;20090;-82
2022/02/23 03:49:33;;;;;;;9.00;1.63;;;;;;;;;;4941289;28;20053;-82
2022/02/23 03:52:00;;;;;;;6.72;1.70;;;;;;;;;;4942112;28;20133;-82
2022/02/23 03:54:27;;;;;;;10.13;1.55;;;;;;;;;;4959525;28;20055;-82
2022/02/23 03:56:54;;;;;;;12.05;1.73;;;;;;;;;;4987209;28;20050;-81
2022/02/23 03:59:21;;;;;;;13.80;2.38;;;;;;;;;;5024026;28;20074;-82
2022/02/23 04:01:47;;;;;;;12.60;2.17;;;;;;;;;;4990201;28;20054;-82
2022/02/23 04:04:16;;;;;;;11.75;2.58;;;;;;;;;;4991936;28;20053;-81
2022/02/23 04:06:43;;;;;;;10.40;2.05;;;;;;;;;;4969365;28;20061;-81
2022/02/23 04:09:10;;;;;;;8.05;2.15;;;;;;;;;;4973636;28;20058;-81
2022/02/23 04:11:37;;;;;;;9.85;2.17;;;;;;;;;;4960298;28;20055;-81
2022/02/23 04:14:04;;;;;;;13.20;2.20;;;;;;;;;;4957640;28;20062;-81
2022/02/23 04:16:32;;;;;;;13.00;1.70;;;;;;;;;;4982890;28;20057;-81
2022/02/23 04:18:59;;;;;;;4.13;1.70;;;;;;;;;;4981223;28;20054;-81
2022/02/23 04:21:25;;;;;;;8.00;2.10;;;;;;;;;;4981323;28;20055;-81
2022/02/23 04:23:52;;;;;;;12.43;1.75;;;;;;;;;;4961728;28;20055;-80
2022/02/23 04:26:19;;;;;;;9.60;1.60;;;;;;;;;;4979110;28;20513;-81
2022/02/23 04:28:47;;;;;;;10.77;1.77;;;;;;;;;;4958499;28;20501;-81
2022/02/23 04:31:19;;;;;;;11.50;2.10;;;;;;;;;;4967406;28;20055;-81
2022/02/23 04:33:49;;;;;;;7.88;1.67;;;;;;;;;;4978821;28;20063;-80
2022/02/23 04:36:15;;;;;;;11.55;2.30;;;;;;;;;;4949235;28;20058;-80
2022/02/23 04:38:42;;;;;;;11.48;2.38;;;;;;;;;;4962067;28;20059;-80
2022/02/23 04:41:09;;;;;;;8.48;1.90;;;;;;;;;;4973891;28;20050;-80
2022/02/23 04:43:36;;;;;;;6.47;2.42;;;;;;;;;;4963236;28;20046;-80
2022/02/23 04:46:04;;;;;;;10.75;2.25;;;;;;;;;;4965370;28;20495;-80
2022/02/23 04:48:39;;;;;;;11.60;2.03;;;;;;;;;;4945406;28;20055;-80
2022/02/23 04:51:06;;;;;;;9.05;2.65;;;;;;;;;;4960655;28;20057;-80
2022/02/23 04:53:37;;;;;;;15.05;2.92;;;;;;;;;;4991800;28;20055;-80
2022/02/23 04:56:07;;;;;;;10.38;2.15;;;;;;;;;;5010086;28;20077;-80
2022/02/23 04:58:37;;;;;;;13.75;2.45;;;;;;;;;;5001539;28;20055;-81
2022/02/23 05:01:24;;;;;;;9.32;2.15;;;;;;;;;;4997797;28;20110;-81
2022/02/23 05:03:54;;;;;;;8.05;2.00;;;;;;;;;;5015300;28;20330;-80
2022/02/23 05:06:27;;;;;;;8.68;1.67;;;;;;;;;;4997855;28;20050;-79
2022/02/23 05:08:55;;;;;;;10.80;2.10;;;;;;;;;;4994050;28;20086;-81
2022/02/23 05:11:26;;;;;;;9.48;1.98;;;;;;;;;;4993877;28;20082;-79
2022/02/23 05:14:03;;;;;;;11.68;2.03;;;;;;;;;;4994259;28;20090;-79
2022/02/23 05:16:30;;;;;;;15.20;2.35;;;;;;;;;;4976188;28;20073;-78
2022/02/23 05:18:57;;;;;;;11.65;1.85;;;;;;;;;;5020613;28;20050;-78
2022/02/23 05:21:24;;;;;;;9.85;2.38;;;;;;;;;;4988653;28;20084;-79
2022/02/23 05:23:51;;;;;;;12.60;2.95;;;;;;;;;;4998609;28;20055;-78
2022/02/23 05:26:17;;;;;;;9.27;2.80;;;;;;;;;;4967142;28;20051;-78
2022/02/23 05:28:44;;;;;;;10.63;3.10;;;;;;;;;;4963087;28;20057;-78
2022/02/23 05:31:11;;;;;;;16.17;3.15;;;;;;;;;;4956777;28;20042;-78
2022/02/23 05:33:37;;;;;;;9.25;2.38;;;;;;;;;;4996036;28;20073;-79
2022/02/23 05:36:05;;;;;;;12.48;2.97;;;;;;;;;;4985524;28;20054;-79
2022/02/23 05:38:32;;;;;;;11.38;2.78;;;;;;;;;;4946460;28;20342;-78
2022/02/23 05:41:01;;;;;;;14.13;2.85;;;;;;;;;;4946275;28;20050;-78
2022/02/23 05:43:28;;;;;;;8.60;2.38;;;;;;;;;;4963035;28;20054;-78
2022/02/23 05:45:55;;;;;;;12.70;2.50;;;;;;;;;;4989546;28;20061;-79
2022/02/23 05:48:22;;;;;;;8.50;2.47;;;;;;;;;;4970412;28;20058;-77
2022/02/23 05:50:49;;;;;;;8.90;2.65;;;;;;;;;;4950013;28;20081;-77
2022/02/23 05:53:15;;;;;;;18.80;3.22;;;;;;;;;;4966539;28;20061;-79
2022/02/23 05:55:42;;;;;;;15.73;3.13;;;;;;;;;;4999066;28;20054;-79
2022/02/23 05:58:11;;;;;;;14.93;3.95;;;;;;;;;;4975538;28;20051;-78
2022/02/23 06:00:38;;;;;;;13.68;4.18;;;;;;;;;;4946773;28;20061;-79
2022/02/23 06:03:09;;;;;;;12.80;3.72;;;;;;;;;;4978717;28;20486;-78
2022/02/23 06:05:36;;;;;;;10.20;3.97;;;;;;;;;;4963010;28;20057;-78
2022/02/23 06:08:02;;;;;;;20.77;5.20;;;;;;;;;;4945514;28;20054;-78
2022/02/23 06:10:29;;;;;;;16.35;5.88;;;;;;;;;;4969840;28;20046;-79
2022/02/23 06:12:56;;;;;;;18.88;4.90;;;;;;;;;;4982648;28;20073;-79
2022/02/23 06:15:24;;;;;;;19.80;5.20;;;;;;;;;;4999150;28;20069;-80
2022/02/23 06:17:50;;;;;;;14.50;4.47;;;;;;;;;;4998072;28;20055;-80
2022/02/23 06:20:17;;;;;;;13.60;4.90;;;;;;;;;;4965215;28;20046;-79
2022/02/23 06:22:44;;;;;;;13.55;4.40;;;;;;;;;;4998373;28;20414;-80
2022/02/23 06:25:11;;;;;;;10.98;4.35;;;;;;;;;;4981717;28;20061;-80
2022/02/23 06:27:38;;;;;;;15.60;4.78;;;;;;;;;;4981699;28;20050;-80
2022/02/23 06:30:05;;;;;;;11.98;3.90;;;;;;;;;;4978301;28;20046;-77
2022/02/23 06:32:32;;;;;;;15.40;3.88;;;;;;;;;;4964077;28;20077;-81
2022/02/23 06:34:59;;;;;;;17.08;4.00;;;;;;;;;;4965025;28;20053;-81
2022/02/23 06:37:26;;;;;;;10.10;4.05;;;;;;;;;;4963715;28;20055;-83
2022/02/23 06:39:54;;;;;;;10.32;3.83;;;;;;;;;;4947755;28;20058;-81
2022/02/23 06:42:20;;;;;;;9.15;3.90;;;;;;;;;;4976568;28;20085;-76
2022/02/23 06:44:47;;;;;;;14.45;3.33;;;;;;;;;;4973898;28;20058;-75
2022/02/23 06:47:16;;;;;;;11.13;4.10;;;;;;;;;;4993942;28;20054;-79
2022/02/23 06:49:42;;;;;;;10.27;4.03;;;;;;;;;;4964029;28;20050;-81
2022/02/23 06:52:10;;;;;;;12.50;3.90;;;;;;;;;;4980284;28;20054;-80
2022/02/23 06:54:36;;;;;;;13.77;4.20;;;;;;;;;;4979234;28;20054;-79
2022/02/23 06:57:07;;;;;;;14.20;4.53;;;;;;;;;;4947332;28;20051;-80
2022/02/23 06:59:34;;;;;;;9.30;3.88;;;;;;;;;;4942523;28;20266;-78
2022/02/23 07:02:02;;;;;;;14.65;4.13;;;;;;;;;;4941615;28;20051;-79
2022/02/23 07:04:29;;;;;;;14.77;4.85;;;;;;;;;;4958452;28;20055;-79
2022/02/23 07:07:01;;;;;;;14.63;4.00;;;;;;;;;;4960191;28;20108;-77
2022/02/23 07:09:32;;;;;;;26.48;5.60;;;;;;;;;;4977345;28;20109;-78
2022/02/23 07:12:04;;;;;;;14.95;4.47;;;;;;;;;;4961469;28;20088;-78
2022/02/23 07:14:32;;;;;;;12.57;4.80;;;;;;;;;;4977810;28;20108;-77
2022/02/23 07:16:59;;;;;;;14.32;4.82;;;;;;;;;;4991774;28;20058;-76
2022/02/23 07:19:31;;;;;;;11.90;4.57;;;;;;;;;;4957316;28;20055;-77
2022/02/23 07:21:58;;;;;;;9.57;4.28;;;;;;;;;;4971767;28;20130;-78
2022/02/23 07:24:25;;;;;;;13.27;4.38;;;;;;;;;;4956851;28;20074;-78
2022/02/23 07:26:52;;;;;;;16.27;4.80;;;;;;;;;;4957832;28;20426;-78
2022/02/23 07:29:18;;;;;;;14.73;5.03;;;;;;;;;;4992817;28;20053;-76
2022/02/23 07:31:46;;;;;;;23.45;6.28;;;;;;;;;;5006571;28;20058;-79
2022/02/23 07:34:13;;;;;;;23.25;6.60;;;;;;;;;;4960363;28;20242;-77
2022/02/23 07:36:39;;;;;;;15.73;6.43;;;;;;;;;;4971828;28;20129;-78
2022/02/23 07:39:08;;;;;;;16.92;6.00;;;;;;;;;;4962519;28;20141;-83
2022/02/23 07:41:35;;;;;;;13.63;5.75;;;;;;;;;;4962784;28;20188;-82
2022/02/23 07:44:21;;;;;;;19.80;7.05;;;;;;;;;;4994608;28;20531;-83
2022/02/23 07:46:48;;;;;;;14.90;6.22;;;;;;;;;;4976668;28;20057;-80
2022/02/23 07:49:16;;;;;;;12.85;5.85;;;;;;;;;;4975215;28;20065;-80
2022/02/23 07:51:42;;;;;;;18.70;7.05;;;;;;;;;;4941009;28;20051;-78
2022/02/23 07:54:09;;;;;;;18.27;6.07;;;;;;;;;;4973359;28;20509;-78
2022/02/23 07:56:36;;;;;;;19.50;6.90;;;;;;;;;;4957372;28;20469;-79
2022/02/23 07:59:03;;;;;;;10.65;5.78;;;;;;;;;;4973274;28;20431;-78
2022/02/23 08:01:40;;;;;;;11.20;5.05;;;;;;;;;;4990418;28;20054;-79
2022/02/23 08:04:09;;;;;;;12.90;5.30;;;;;;;;;;4962734;28;20057;-78
2022/02/23 08:06:36;;;;;;;14.57;5.13;;;;;;;;;;4993147;28;20450;-78
2022/02/23 08:09:03;;;;;;;21.27;6.55;;;;;;;;;;4961058;28;20058;-78
2022/02/23 08:11:32;;;;;;;17.38;7.40;;;;;;;;;;4973584;28;20050;-78
2022/02/23 08:13:58;;;;;;;18.33;6.05;;;;;;;;;;4957500;28;20404;-78
2022/02/23 08:22:06;;;;;;;15.45;5.55;;;;;;;;;;4959290;28;20055;-77
2022/02/23 08:24:34;;;;;;;10.65;4.47;;;;;;;;;;4952889;28;20160;-78
2022/02/23 08:27:02;;;;;;;11.35;5.32;;;;;;;;;;4976642;28;20066;-78
2022/02/23 08:29:29;;;;;;;7.95;3.60;;;;;;;;;;5008751;28;20525;-78
2022/02/23 08:31:57;;;;;;;9.18;3.05;;;;;;;;;;5008132;28;20054;-78
2022/02/23 08:34:24;;;;;;;8.98;3.38;;;;;;;;;;4978121;28;20147;-78
2022/02/23 08:36:53;;;;;;;11.27;3.88;;;;;;;;;;4964499;28;20521;-78
2022/02/23 08:39:21;;;;;;;9.45;4.35;;;;;;;;;;4957497;28;20051;-78
2022/02/23 08:41:47;;;;;;;10.93;3.33;;;;;;;;;;4979313;28;20053;-78
2022/02/23 08:44:19;;;;;;;11.35;4.78;;;;;;;;;;4942967;28;20070;-78
2022/02/23 08:46:47;;;;;;;10.55;4.88;;;;;;;;;;4982811;28;20145;-78
2022/02/23 08:49:13;;;;;;;9.85;4.55;;;;;;;;;;4994051;28;20051;-78
2022/02/23 08:51:46;;;;;;;14.20;4.30;;;;;;;;;;5008201;28;20131;-79
2022/02/23 08:54:15;;;;;;;9.15;4.43;;;;;;;;;;5008389;28;20062;-78
2022/02/23 08:56:42;;;;;;;15.52;4.60;;;;;;;;;;4976308;28;20050;-78
2022/02/23 08:59:08;;;;;;;9.40;4.50;;;;;;;;;;4992365;28;20450;-78
2022/02/23 09:01:35;;;;;;;9.32;4.13;;;;;;;;;;4976471;28;20423;-78
2022/02/23 09:04:03;;;;;;;8.95;3.45;;;;;;;;;;4944383;28;20419;-78
2022/02/23 09:06:35;;;;;;;9.80;3.88;;;;;;;;;;4960535;28;20078;-77
2022/02/23 09:09:02;;;;;;;11.13;4.05;;;;;;;;;;4960870;28;20510;-78
2022/02/23 09:11:29;;;;;;;9.23;2.38;;;;;;;;;;4960048;28;20051;-77
2022/02/23 09:13:56;;;;;;;8.18;1.85;;;;;;;;;;4977556;28;20252;-78
2022/02/23 09:16:28;;;;;;;11.13;3.20;;;;;;;;;;5011069;28;20052;-78
2022/02/23 09:18:58;;;;;;;7.18;2.42;;;;;;;;;;4964187;28;20081;-78
2022/02/23 09:21:27;;;;;;;9.93;2.00;;;;;;;;;;4966383;28;20050;-77
2022/02/23 09:23:54;;;;;;;10.60;2.80;;;;;;;;;;4997813;28;20058;-78
2022/02/23 09:26:21;;;;;;;5.55;1.60;;;;;;;;;;4996165;28;20138;-79
2022/02/23 09:28:47;;;;;;;5.53;1.48;;;;;;;;;;4980440;28;20054;-78
2022/02/23 09:31:14;;;;;;;7.55;2.13;;;;;;;;;;5012408;28;20055;-78
2022/02/23 09:33:41;;;;;;;8.35;1.95;;;;;;;;;;4980315;28;20065;-79
2022/02/23 09:36:13;;;;;;;5.53;1.90;;;;;;;;;;4980682;28;20502;-78
2022/02/23 09:38:41;;;;;;;6.60;1.80;;;;;;;;;;4945589;28;20050;-78
2022/02/23 09:41:10;;;;;;;5.93;1.65;;;;;;;;;;4961606;28;20062;-78
2022/02/23 09:43:37;;;;;;;8.55;1.45;;;;;;;;;;4977821;28;20059;-79
2022/02/23 09:46:06;;;;;;;9.55;2.78;;;;;;;;;;4961657;28;20069;-77
2022/02/23 09:48:33;;;;;;;7.55;1.63;;;;;;;;;;4979039;28;20129;-79
2022/02/23 09:51:01;;;;;;;4.78;1.73;;;;;;;;;;4979730;28;20066;-77
2022/02/23 09:53:28;;;;;;;9.15;1.60;;;;;;;;;;4963439;28;20056;-78
2022/02/23 09:55:59;;;;;;;7.28;1.70;;;;;;;;;;4963398;28;20541;-78
2022/02/23 09:58:27;;;;;;;8.07;1.63;;;;;;;;;;4980061;28;20058;-78
2022/02/23 10:01:00;;;;;;;6.85;1.58;;;;;;;;;;4960871;28;20047;-78
2022/02/23 10:03:27;;;;;;;4.35;1.45;;;;;;;;;;4944276;28;20065;-78
2022/02/23 10:05:54;;;;;;;5.85;1.52;;;;;;;;;;4959955;28;20054;-78
2022/02/23 10:08:21;;;;;;;8.45;1.30;;;;;;;;;;4944018;28;20504;-78
2022/02/23 10:11:02;;;;;;;5.25;1.35;;;;;;;;;;4962140;28;20055;-78
2022/02/23 10:13:29;;;;;;;6.78;2.35;;;;;;;;;;4949591;28;20060;-78
2022/02/23 10:15:58;;;;;;;6.28;1.42;;;;;;;;;;4963348;28;20054;-78
2022/02/23 10:18:45;;;;;;;6.13;1.65;;;;;;;;;;4982907;28;20053;-78
2022/02/23 10:21:19;;;;;;;5.55;1.42;;;;;;;;;;5011306;28;20078;-78
2022/02/23 10:23:47;;;;;;;7.50;2.28;;;;;;;;;;4995663;28;20050;-78
2022/02/23 10:26:15;;;;;;;11.27;1.50;;;;;;;;;;4965845;28;20086;-78
2022/02/23 10:28:42;;;;;;;4.05;1.10;;;;;;;;;;4941695;28;20051;-78
2022/02/23 10:31:10;;;;;;;9.88;2.00;;;;;;;;;;4973092;28;20050;-77
2022/02/23 10:33:38;;;;;;;4.95;1.38;;;;;;;;;;4941528;28;20427;-77
2022/02/23 10:36:22;;;;;;;6.45;2.13;;;;;;;;;;4946223;28;20058;-76
2022/02/23 10:39:00;;;;;;;6.63;1.65;;;;;;;;;;4957393;28;20062;-76
2022/02/23 10:41:32;;;;;;;4.10;1.45;;;;;;;;;;4979209;28;20058;-77
2022/02/23 10:44:00;;;;;;;5.95;1.23;;;;;;;;;;4961007;28;20141;-77
2022/02/23 10:46:27;;;;;;;6.85;1.30;;;;;;;;;;5009236;28;20430;-78
2022/02/23 10:49:02;;;;;;;5.50;1.05;;;;;;;;;;4960843;28;20064;-78
2022/02/23 10:51:31;;;;;;;4.90;1.45;;;;;;;;;;4958524;28;20471;-78
2022/02/23 10:54:12;;;;;;;6.03;1.35;;;;;;;;;;4957826;28;20515;-78
2022/02/23 10:56:41;;;;;;;7.15;1.38;;;;;;;;;;4941239;28;20055;-78
2022/02/23 10:59:11;;;;;;;4.13;1.15;;;;;;;;;;4957594;28;20058;-78
2022/02/23 11:01:39;;;;;;;4.45;1.58;;;;;;;;;;4981090;28;20065;-78
2022/02/23 11:04:06;;;;;;;8.20;1.50;;;;;;;;;;4977391;28;20077;-77
2022/02/23 11:06:33;;;;;;;5.55;1.45;;;;;;;;;;4984501;28;20446;-78
2022/02/23 11:09:00;;;;;;;7.28;1.45;;;;;;;;;;4959919;28;20144;-77
2022/02/23 11:11:28;;;;;;;7.88;1.50;;;;;;;;;;4975916;28;20185;-77
2022/02/23 11:13:56;;;;;;;7.75;1.63;;;;;;;;;;4966096;28;20090;-77
2022/02/23 11:16:29;;;;;;;9.18;1.88;;;;;;;;;;4941382;28;20058;-77
2022/02/23 11:18:57;;;;;;;6.80;1.42;;;;;;;;;;4940931;28;20054;-77
2022/02/23 11:21:26;;;;;;;6.38;2.20;;;;;;;;;;4942422;28;20042;-77
2022/02/23 11:23:58;;;;;;;4.30;1.60;;;;;;;;;;4958210;28;20431;-77
2022/02/23 11:26:24;;;;;;;8.32;1.75;;;;;;;;;;4983790;28;20069;-77
2022/02/23 11:29:21;;;;;;;6.43;1.55;;;;;;;;;;4993198;28;20050;-78
2022/02/23 11:31:53;;;;;;;4.50;1.13;;;;;;;;;;4991523;28;20065;-78
2022/02/23 11:34:22;;;;;;;3.13;1.20;;;;;;;;;;4993314;28;20410;-78
2022/02/23 11:36:52;;;;;;;6.05;1.42;;;;;;;;;;4960402;28;20404;-78
2022/02/23 11:39:27;;;;;;;9.57;1.67;;;;;;;;;;4957908;28;20486;-77
2022/02/23 11:41:56;;;;;;;8.25;2.22;;;;;;;;;;4940975;28;20491;-76
2022/02/23 11:44:27;;;;;;;6.95;1.40;;;;;;;;;;4955972;28;20059;-79
2022/02/23 11:46:54;;;;;;;7.35;1.88;;;;;;;;;;4972145;28;20087;-76
2022/02/23 11:49:31;;;;;;;6.88;1.67;;;;;;;;;;4974982;28;20054;-73
2022/02/23 11:52:14;;;;;;;4.05;1.85;;;;;;;;;;4975392;28;20050;-73
2022/02/23 11:55:02;;;;;;;;;;;;;;;;;;4991804;28;20112;-73
2022/02/23 11:57:44;;;;;;;4.43;1.35;;;;;;;;;;5006128;28;19933;-73
2022/02/23 12:00:30;;;;;;;6.90;1.70;;;;;;;;;;4978328;28;20391;-77
2022/02/23 12:03:23;;;;;;;4.20;1.38;;;;;;;;;;4965637;28;20094;-78
2022/02/23 12:06:09;;;;;;;6.40;1.40;;;;;;;;;;4957134;28;20058;-78
2022/02/23 12:08:37;;;;;;;5.85;1.40;;;;;;;;;;4956639;28;20065;-78
2022/02/23 12:11:10;;;;;;;7.57;2.13;;;;;;;;;;4941058;28;20051;-78
2022/02/23 12:13:37;;;;;;;;;;;;;;;;;;4971960;28;20050;-78
2022/02/23 12:16:47;;;;;;;8.35;1.33;;;;;;;;;;4975006;28;19928;-78
2022/02/23 12:19:16;;;;;;;5.13;1.20;;;;;;;;;;4921020;29;20055;-78
2022/02/23 12:21:45;;;;;;;8.30;1.50;;;;;;;;;;4934278;29;20051;-78
2022/02/23 12:24:16;;;;;;;8.20;1.63;;;;;;;;;;4941172;28;20507;-78
2022/02/23 12:26:43;;;;;;;6.57;1.75;;;;;;;;;;4983629;28;20419;-77
2022/02/23 12:29:13;;;;;;;10.25;1.38;;;;;;;;;;4970237;28;20463;-77
2022/02/23 12:31:44;;;;;;;5.88;1.70;;;;;;;;;;4954614;28;20495;-78
2022/02/23 12:34:14;;;;;;;3.92;1.17;;;;;;;;;;4955906;28;20062;-78
2022/02/23 12:37:02;;;;;;;5.63;1.60;;;;;;;;;;4988283;28;20062;-78
2022/02/23 12:39:30;;;;;;;3.67;1.27;;;;;;;;;;4996437;28;20065;-79
2022/02/23 12:42:05;;;;;;;7.32;1.85;;;;;;;;;;4964726;28;20050;-80
2022/02/23 12:44:37;;;;;;;4.18;1.17;;;;;;;;;;4979074;28;20046;-79
2022/02/23 12:47:09;;;;;;;4.95;1.48;;;;;;;;;;4980229;28;20142;-80
2022/02/23 12:49:36;;;;;;;3.63;1.50;;;;;;;;;;4963608;28;20050;-80
2022/02/23 12:52:05;;;;;;;5.90;1.30;;;;;;;;;;4946120;28;20057;-81
2022/02/23 12:54:32;;;;;;;7.38;1.88;;;;;;;;;;4945237;28;20149;-80
2022/02/23 12:57:04;;;;;;;4.75;1.40;;;;;;;;;;4962596;28;20046;-79
2022/02/23 12:59:32;;;;;;;4.35;1.30;;;;;;;;;;4946534;28;20055;-79
2022/02/23 13:02:02;;;;;;;4.05;1.48;;;;;;;;;;4962430;28;20046;-79
2022/02/23 13:04:30;;;;;;;5.53;1.40;;;;;;;;;;4948527;28;20062;-82
2022/02/23 13:07:01;;;;;;;5.30;1.40;;;;;;;;;;4972048;28;20055;-77
2022/02/23 13:09:34;;;;;;;6.93;1.63;;;;;;;;;;4979218;28;20054;-77
2022/02/23 13:12:01;;;;;;;;;;;;;;;;;;4962848;28;20043;-77
2022/02/23 13:14:32;;;;;;;3.55;0.95;;;;;;;;;;4985965;28;20171;-77
2022/02/23 13:17:01;;;;;;;8.38;1.65;;;;;;;;;;4984328;28;20059;-78
2022/02/23 13:19:29;;;;;;;5.60;1.38;;;;;;;;;;4964693;28;20059;-77
2022/02/23 13:22:01;;;;;;;5.57;1.17;;;;;;;;;;4985052;28;20054;-77
2022/02/23 13:24:41;;;;;;;4.80;1.17;;;;;;;;;;4982668;28;20075;-77
2022/02/23 13:27:10;;;;;;;3.30;0.95;;;;;;;;;;4984205;28;20304;-77
2022/02/23 13:29:39;;;;;;;6.47;1.70;;;;;;;;;;4980990;28;20050;-77
2022/02/23 13:32:11;;;;;;;5.05;1.30;;;;;;;;;;4966402;28;20077;-78
2022/02/23 13:34:45;;;;;;;4.10;1.27;;;;;;;;;;4980383;28;20065;-77
2022/02/23 13:37:18;;;;;;;4.45;1.70;;;;;;;;;;4962932;28;20108;-77
2022/02/23 13:39:58;;;;;;;5.50;1.25;;;;;;;;;;4979847;28;20133;-78
2022/02/23 13:42:34;;;;;;;4.05;1.08;;;;;;;;;;4967431;28;20057;-77
2022/02/23 13:45:29;;;;;;;6.63;1.80;;;;;;;;;;4978530;28;20578;-77
2022/02/23 13:48:00;;;;;;;6.40;1.70;;;;;;;;;;4951851;28;20050;-77
2022/02/23 13:50:28;;;;;;;5.65;1.23;;;;;;;;;;4951357;28;20050;-77
2022/02/23 13:53:04;;;;;;;7.20;1.58;;;;;;;;;;4961345;28;20415;-77
2022/02/23 13:55:43;;;;;;;4.45;1.20;;;;;;;;;;4976903;28;20133;-77
2022/02/23 13:58:14;;;;;;;4.28;1.88;;;;;;;;;;4984285;28;20134;-77
2022/02/23 14:00:52;;;;;;;6.20;3.63;;;;;;;;;;4984040;28;21492;-77
2022/02/23 14:03:45;;;;;;;7.40;2.00;;;;;;;;;;4982536;28;20078;-77
2022/02/23 14:06:19;;;;;;;5.40;1.42;;;;;;;;;;4993509;28;20070;-77
2022/02/23 14:08:53;;;;;;;6.57;1.75;;;;;;;;;;4972816;28;20052;-77
2022/02/23 14:11:28;;;;;;;11.57;2.00;;;;;;;;;;4963464;28;20414;-77
2022/02/23 14:14:05;;;;;;;5.65;1.30;;;;;;;;;;4962134;28;20053;-77
2022/02/23 14:16:38;;;;;;;6.20;1.52;;;;;;;;;;4960511;28;20065;-77
2022/02/23 14:19:20;;;;;;;7.47;1.40;;;;;;;;;;4960583;28;20062;-77
2022/02/23 14:21:51;;;;;;;2.85;1.00;;;;;;;;;;4952243;28;20105;-77
2022/02/23 14:24:21;;;;;;;5.47;1.35;;;;;;;;;;4948299;28;20074;-78
2022/02/23 14:27:06;;;;;;;6.20;1.17;;;;;;;;;;4967186;28;21018;-77
2022/02/23 14:29:35;;;;;;;6.45;1.60;;;;;;;;;;4955206;28;20062;-77
2022/02/23 14:32:15;;;;;;;7.25;1.65;;;;;;;;;;4955010;28;20050;-77
2022/02/23 14:34:49;;;;;;;4.93;1.42;;;;;;;;;;4966049;28;20129;-77
2022/02/23 14:37:19;;;;;;;5.72;1.20;;;;;;;;;;4961772;28;20047;-77
2022/02/23 14:39:47;;;;;;;5.90;1.13;;;;;;;;;;4954042;28;20080;-78
2022/02/23 14:42:13;;;;;;;6.60;1.35;;;;;;;;;;4973113;28;20053;-78
2022/02/23 14:44:40;;;;;;;5.05;1.55;;;;;;;;;;4966817;28;20502;-78
2022/02/23 14:47:12;;;;;;;4.80;1.20;;;;;;;;;;4948114;28;20656;-78
2022/02/23 14:49:40;;;;;;;5.90;1.27;;;;;;;;;;4975435;28;20141;-77
2022/02/23 14:52:08;;;;;;;2.97;1.00;;;;;;;;;;4966460;28;20526;-78
2022/02/23 14:54:35;;;;;;;4.97;1.35;;;;;;;;;;4964640;28;20065;-76
2022/02/23 14:57:02;;;;;;;2.75;1.02;;;;;;;;;;4981515;28;20422;-78
2022/02/23 14:59:32;;;;;;;3.42;1.10;;;;;;;;;;4961629;28;20066;-77